• Join FlightAware (Why Join?)
  • Login
  • US Flag 
11:36PM EDT


 

Airport Tracker/Info


-or-


 

Live Flight TrackerFlight Track Log ✈ UAL4335 ✈ 09-Sep-2013 ✈ KORD - KMLI

Flight Track Log - Related Links

Times and Time Zones

All times are in EDT time to prevent confusion due to time zone crossing. See the UAL4335 flight status page for this flight to view local times or setup timezone preferences in your user account.

Time Position Orientation Groundspeed Altitude Reporting Facility
EDT Latitude Longitude Course Direction KTS MPH feet Rate Location/Type
04:26PM 41.9333 -87.9167 228° Southwest 174 200 2,200  Level Chicago TRACON
04:27PM 41.9000 -87.9667 228° Southwest 204 235 4,300 1,680 Climbing Chicago TRACON
04:28PM 41.8667 -88.0333 236° Southwest 238 274 5,800 1,560 Climbing Chicago TRACON
04:29PM 41.8581 -88.1569 265° West 260 299 7,900 1,740 Climbing Chicago Center
04:30PM 41.8544 -88.2583 267° West 272 313 9,800 1,800 Climbing Chicago Center
04:31PM 41.8506 -88.3617 267° West 280 322 11,700 1,800 Climbing Chicago Center
04:32PM 41.8447 -88.4644 266° West 280 322 13,600 1,080 Climbing Chicago Center
04:33PM 41.8244 -88.5733 256° West 303 349 14,000 300 Climbing Chicago Center
04:34PM 41.7953 -88.7225 255° West 347 399 14,300 600 Climbing Chicago Center
04:35PM 41.7728 -88.8461 256° West 347 399 15,300 780 Climbing Chicago Center
04:36PM 41.7503 -88.9706 256° West 347 399 16,000 300 Climbing Chicago Center
04:37PM 41.7256 -89.1017 256° West 365 420 16,000  Level Chicago Center
04:38PM 41.6931 -89.2650 255° West 384 442 16,000  Level Chicago Center
04:39PM 41.6672 -89.4042 256° West 389 448 16,000  Level Chicago Center
04:40PM 41.6403 -89.5428 255° West 389 448 16,000  Level Chicago Center
04:41PM 41.6150 -89.6753 256° West 386 444 16,000 -300 Level Chicago Center
04:42PM 41.5883 -89.8128 256° West 385 443 15,400 -1,200 Descending Chicago Center
04:43PM 41.5556 -89.9756 255° West 382 440 13,600 -1,980 Descending Chicago Center
04:45PM 41.5225 -90.0931 249° West 354 407 11,300 -1,980 Descending Chicago Center
04:46PM 41.4947 -90.2025 251° West 327 376 9,500 -2,640 Descending Chicago Center
04:47PM 41.4664 -90.2917 247° West 292 336 5,900 -3,540 Descending Chicago Center
04:48PM 41.4475 -90.3747 253° West 266 306 2,200 -2,160 Descending Chicago Center
04:49PM 41.4503 -90.4258 274° West 193 222 1,500 -720 Descending Chicago Center